sensor_id;sensor_type;location;lat;lon;timestamp;P1;durP1;ratioP1;P2;durP2;ratioP2
41881;SDS011;27562;47.524;12.404;2024-01-07T00:01:35;21.98;;;11.50;;
41881;SDS011;27562;47.524;12.404;2024-01-07T00:04:00;20.92;;;11.15;;
41881;SDS011;27562;47.524;12.404;2024-01-07T00:06:26;24.33;;;12.70;;
41881;SDS011;27562;47.524;12.404;2024-01-07T00:08:52;20.27;;;11.77;;
41881;SDS011;27562;47.524;12.404;2024-01-07T00:11:17;18.63;;;10.25;;
41881;SDS011;27562;47.524;12.404;2024-01-07T00:13:43;18.67;;;10.60;;
41881;SDS011;27562;47.524;12.404;2024-01-07T00:16:09;20.67;;;10.52;;
41881;SDS011;27562;47.524;12.404;2024-01-07T00:18:35;19.08;;;11.02;;
41881;SDS011;27562;47.524;12.404;2024-01-07T00:21:01;20.10;;;11.40;;
41881;SDS011;27562;47.524;12.404;2024-01-07T00:23:26;19.02;;;10.43;;
41881;SDS011;27562;47.524;12.404;2024-01-07T00:25:52;19.70;;;10.77;;
41881;SDS011;27562;47.524;12.404;2024-01-07T00:28:18;20.42;;;10.68;;
41881;SDS011;27562;47.524;12.404;2024-01-07T00:30:43;17.65;;;9.85;;
41881;SDS011;27562;47.524;12.404;2024-01-07T00:33:09;17.98;;;9.98;;
41881;SDS011;27562;47.524;12.404;2024-01-07T00:35:35;18.15;;;10.05;;
41881;SDS011;27562;47.524;12.404;2024-01-07T00:38:00;18.42;;;9.50;;
41881;SDS011;27562;47.524;12.404;2024-01-07T00:40:26;18.17;;;9.80;;
41881;SDS011;27562;47.524;12.404;2024-01-07T00:42:52;17.85;;;9.60;;
41881;SDS011;27562;47.524;12.404;2024-01-07T00:45:17;17.80;;;8.57;;
41881;SDS011;27562;47.524;12.404;2024-01-07T00:47:43;16.95;;;9.23;;
41881;SDS011;27562;47.524;12.404;2024-01-07T00:50:09;17.35;;;9.23;;
41881;SDS011;27562;47.524;12.404;2024-01-07T00:52:35;14.52;;;8.27;;
41881;SDS011;27562;47.524;12.404;2024-01-07T00:55:04;16.48;;;9.05;;
41881;SDS011;27562;47.524;12.404;2024-01-07T00:57:31;15.68;;;9.05;;
41881;SDS011;27562;47.524;12.404;2024-01-07T00:59:57;13.30;;;7.80;;
41881;SDS011;27562;47.524;12.404;2024-01-07T01:02:23;15.45;;;8.40;;
41881;SDS011;27562;47.524;12.404;2024-01-07T01:04:49;17.00;;;8.85;;
41881;SDS011;27562;47.524;12.404;2024-01-07T01:07:15;17.35;;;9.60;;
41881;SDS011;27562;47.524;12.404;2024-01-07T01:09:40;19.00;;;10.13;;
41881;SDS011;27562;47.524;12.404;2024-01-07T01:12:06;17.15;;;9.85;;
41881;SDS011;27562;47.524;12.404;2024-01-07T01:14:32;15.95;;;9.02;;
41881;SDS011;27562;47.524;12.404;2024-01-07T01:16:57;16.30;;;8.80;;
41881;SDS011;27562;47.524;12.404;2024-01-07T01:19:23;19.83;;;10.70;;
41881;SDS011;27562;47.524;12.404;2024-01-07T01:21:49;17.27;;;9.70;;
41881;SDS011;27562;47.524;12.404;2024-01-07T01:24:15;22.13;;;11.10;;
41881;SDS011;27562;47.524;12.404;2024-01-07T01:26:41;22.48;;;11.68;;
41881;SDS011;27562;47.524;12.404;2024-01-07T01:29:06;17.23;;;10.68;;
41881;SDS011;27562;47.524;12.404;2024-01-07T01:31:32;19.92;;;10.25;;
41881;SDS011;27562;47.524;12.404;2024-01-07T01:33:58;18.10;;;10.27;;
41881;SDS011;27562;47.524;12.404;2024-01-07T01:36:23;18.92;;;10.38;;
41881;SDS011;27562;47.524;12.404;2024-01-07T01:38:49;19.30;;;10.20;;
41881;SDS011;27562;47.524;12.404;2024-01-07T01:41:17;18.75;;;10.02;;
41881;SDS011;27562;47.524;12.404;2024-01-07T01:43:43;16.75;;;9.23;;
41881;SDS011;27562;47.524;12.404;2024-01-07T01:46:09;17.52;;;9.77;;
41881;SDS011;27562;47.524;12.404;2024-01-07T01:48:35;16.17;;;9.23;;
41881;SDS011;27562;47.524;12.404;2024-01-07T01:51:02;16.10;;;8.88;;
41881;SDS011;27562;47.524;12.404;2024-01-07T01:53:28;15.10;;;8.93;;
41881;SDS011;27562;47.524;12.404;2024-01-07T01:55:57;18.02;;;9.07;;
41881;SDS011;27562;47.524;12.404;2024-01-07T01:58:24;19.53;;;9.87;;
41881;SDS011;27562;47.524;12.404;2024-01-07T02:00:51;17.15;;;8.40;;
41881;SDS011;27562;47.524;12.404;2024-01-07T02:03:17;16.08;;;8.98;;
41881;SDS011;27562;47.524;12.404;2024-01-07T02:05:43;15.07;;;7.95;;
41881;SDS011;27562;47.524;12.404;2024-01-07T02:08:10;17.05;;;9.10;;
41881;SDS011;27562;47.524;12.404;2024-01-07T02:10:36;19.48;;;10.00;;
41881;SDS011;27562;47.524;12.404;2024-01-07T02:13:03;15.10;;;9.18;;
41881;SDS011;27562;47.524;12.404;2024-01-07T02:15:29;17.25;;;9.60;;
41881;SDS011;27562;47.524;12.404;2024-01-07T02:17:55;15.95;;;8.48;;
41881;SDS011;27562;47.524;12.404;2024-01-07T02:20:21;15.95;;;9.25;;
41881;SDS011;27562;47.524;12.404;2024-01-07T02:22:47;16.00;;;8.88;;
41881;SDS011;27562;47.524;12.404;2024-01-07T02:25:12;14.90;;;8.52;;
41881;SDS011;27562;47.524;12.404;2024-01-07T02:27:38;14.48;;;8.48;;
41881;SDS011;27562;47.524;12.404;2024-01-07T02:30:04;13.48;;;7.97;;
41881;SDS011;27562;47.524;12.404;2024-01-07T02:32:30;14.93;;;8.10;;
41881;SDS011;27562;47.524;12.404;2024-01-07T02:35:01;15.80;;;8.35;;
41881;SDS011;27562;47.524;12.404;2024-01-07T02:37:27;14.32;;;8.30;;
41881;SDS011;27562;47.524;12.404;2024-01-07T02:39:52;14.57;;;7.75;;
41881;SDS011;27562;47.524;12.404;2024-01-07T02:42:18;12.02;;;6.85;;
41881;SDS011;27562;47.524;12.404;2024-01-07T02:44:44;15.25;;;7.88;;
41881;SDS011;27562;47.524;12.404;2024-01-07T02:47:09;17.42;;;8.85;;
41881;SDS011;27562;47.524;12.404;2024-01-07T02:49:35;16.27;;;8.90;;
41881;SDS011;27562;47.524;12.404;2024-01-07T02:52:00;15.43;;;8.63;;
41881;SDS011;27562;47.524;12.404;2024-01-07T02:54:26;14.55;;;8.40;;
41881;SDS011;27562;47.524;12.404;2024-01-07T02:56:52;16.17;;;8.90;;
41881;SDS011;27562;47.524;12.404;2024-01-07T02:59:17;13.68;;;7.40;;
41881;SDS011;27562;47.524;12.404;2024-01-07T03:01:43;14.75;;;8.73;;
41881;SDS011;27562;47.524;12.404;2024-01-07T03:04:10;15.80;;;8.05;;
41881;SDS011;27562;47.524;12.404;2024-01-07T03:06:37;14.40;;;7.75;;
41881;SDS011;27562;47.524;12.404;2024-01-07T03:09:03;13.77;;;7.40;;
41881;SDS011;27562;47.524;12.404;2024-01-07T03:11:29;13.95;;;7.25;;
41881;SDS011;27562;47.524;12.404;2024-01-07T03:13:55;15.18;;;8.32;;
41881;SDS011;27562;47.524;12.404;2024-01-07T03:16:22;14.23;;;7.80;;
41881;SDS011;27562;47.524;12.404;2024-01-07T03:18:48;14.32;;;8.02;;
41881;SDS011;27562;47.524;12.404;2024-01-07T03:21:20;14.13;;;8.25;;
41881;SDS011;27562;47.524;12.404;2024-01-07T03:23:47;14.38;;;8.07;;
41881;SDS011;27562;47.524;12.404;2024-01-07T03:26:13;13.77;;;7.55;;
41881;SDS011;27562;47.524;12.404;2024-01-07T03:28:39;14.05;;;7.97;;
41881;SDS011;27562;47.524;12.404;2024-01-07T03:31:07;12.55;;;7.65;;
41881;SDS011;27562;47.524;12.404;2024-01-07T03:33:37;12.68;;;6.65;;
41881;SDS011;27562;47.524;12.404;2024-01-07T03:36:07;13.32;;;7.03;;
41881;SDS011;27562;47.524;12.404;2024-01-07T03:38:33;12.30;;;6.55;;
41881;SDS011;27562;47.524;12.404;2024-01-07T03:40:59;11.13;;;6.03;;
41881;SDS011;27562;47.524;12.404;2024-01-07T03:43:25;11.55;;;6.57;;
41881;SDS011;27562;47.524;12.404;2024-01-07T03:45:50;11.65;;;6.20;;
41881;SDS011;27562;47.524;12.404;2024-01-07T03:48:16;12.10;;;6.55;;
41881;SDS011;27562;47.524;12.404;2024-01-07T03:50:42;11.77;;;6.50;;
41881;SDS011;27562;47.524;12.404;2024-01-07T03:53:08;13.07;;;7.18;;
41881;SDS011;27562;47.524;12.404;2024-01-07T03:55:34;11.45;;;6.18;;
41881;SDS011;27562;47.524;12.404;2024-01-07T03:58:00;14.43;;;6.93;;
41881;SDS011;27562;47.524;12.404;2024-01-07T04:00:25;12.48;;;6.60;;
41881;SDS011;27562;47.524;12.404;2024-01-07T04:02:51;10.15;;;5.68;;
41881;SDS011;27562;47.524;12.404;2024-01-07T04:05:17;11.32;;;6.45;;
41881;SDS011;27562;47.524;12.404;2024-01-07T04:07:42;11.93;;;6.32;;
41881;SDS011;27562;47.524;12.404;2024-01-07T04:10:08;12.85;;;6.95;;
41881;SDS011;27562;47.524;12.404;2024-01-07T04:12:34;10.70;;;6.35;;
41881;SDS011;27562;47.524;12.404;2024-01-07T04:14:59;12.82;;;7.55;;
41881;SDS011;27562;47.524;12.404;2024-01-07T04:17:25;12.93;;;7.18;;
41881;SDS011;27562;47.524;12.404;2024-01-07T04:19:52;12.30;;;6.80;;
41881;SDS011;27562;47.524;12.404;2024-01-07T04:22:18;13.02;;;7.35;;
41881;SDS011;27562;47.524;12.404;2024-01-07T04:24:43;15.38;;;7.43;;
41881;SDS011;27562;47.524;12.404;2024-01-07T04:27:09;11.25;;;6.20;;
41881;SDS011;27562;47.524;12.404;2024-01-07T04:29:35;12.65;;;6.70;;
41881;SDS011;27562;47.524;12.404;2024-01-07T04:32:01;10.38;;;6.07;;
41881;SDS011;27562;47.524;12.404;2024-01-07T04:34:26;10.63;;;5.65;;
41881;SDS011;27562;47.524;12.404;2024-01-07T04:36:52;11.10;;;6.35;;
41881;SDS011;27562;47.524;12.404;2024-01-07T04:39:18;12.27;;;6.22;;
41881;SDS011;27562;47.524;12.404;2024-01-07T04:41:43;10.50;;;6.22;;
41881;SDS011;27562;47.524;12.404;2024-01-07T04:44:09;9.95;;;6.05;;
41881;SDS011;27562;47.524;12.404;2024-01-07T04:46:37;11.70;;;6.40;;
41881;SDS011;27562;47.524;12.404;2024-01-07T04:49:03;11.00;;;5.90;;
41881;SDS011;27562;47.524;12.404;2024-01-07T04:51:30;13.23;;;6.50;;
41881;SDS011;27562;47.524;12.404;2024-01-07T04:53:56;13.55;;;7.78;;
41881;SDS011;27562;47.524;12.404;2024-01-07T04:56:22;12.32;;;7.43;;
41881;SDS011;27562;47.524;12.404;2024-01-07T04:58:48;11.07;;;5.97;;
41881;SDS011;27562;47.524;12.404;2024-01-07T05:01:13;12.27;;;6.35;;
41881;SDS011;27562;47.524;12.404;2024-01-07T05:03:39;10.55;;;6.25;;
41881;SDS011;27562;47.524;12.404;2024-01-07T05:06:05;9.65;;;5.35;;
41881;SDS011;27562;47.524;12.404;2024-01-07T05:08:33;8.85;;;4.55;;
41881;SDS011;27562;47.524;12.404;2024-01-07T05:10:58;11.07;;;5.95;;
41881;SDS011;27562;47.524;12.404;2024-01-07T05:13:24;8.95;;;5.35;;
41881;SDS011;27562;47.524;12.404;2024-01-07T05:15:50;10.50;;;5.95;;
41881;SDS011;27562;47.524;12.404;2024-01-07T05:18:21;10.95;;;6.22;;
41881;SDS011;27562;47.524;12.404;2024-01-07T05:20:48;10.55;;;5.57;;
41881;SDS011;27562;47.524;12.404;2024-01-07T05:23:14;13.70;;;6.70;;
41881;SDS011;27562;47.524;12.404;2024-01-07T05:25:41;12.45;;;6.78;;
41881;SDS011;27562;47.524;12.404;2024-01-07T05:28:08;14.63;;;7.15;;
41881;SDS011;27562;47.524;12.404;2024-01-07T05:30:33;15.13;;;7.80;;
41881;SDS011;27562;47.524;12.404;2024-01-07T05:32:59;15.25;;;7.20;;
41881;SDS011;27562;47.524;12.404;2024-01-07T05:35:25;15.75;;;7.72;;
41881;SDS011;27562;47.524;12.404;2024-01-07T05:37:50;13.85;;;6.80;;
41881;SDS011;27562;47.524;12.404;2024-01-07T05:40:16;13.95;;;6.90;;
41881;SDS011;27562;47.524;12.404;2024-01-07T05:42:42;11.88;;;6.05;;
41881;SDS011;27562;47.524;12.404;2024-01-07T05:45:07;12.43;;;5.82;;
41881;SDS011;27562;47.524;12.404;2024-01-07T05:47:33;14.35;;;7.78;;
41881;SDS011;27562;47.524;12.404;2024-01-07T05:49:59;12.65;;;6.05;;
41881;SDS011;27562;47.524;12.404;2024-01-07T05:52:25;13.50;;;6.80;;
41881;SDS011;27562;47.524;12.404;2024-01-07T05:54:50;14.65;;;8.27;;
41881;SDS011;27562;47.524;12.404;2024-01-07T05:57:16;15.75;;;8.52;;
41881;SDS011;27562;47.524;12.404;2024-01-07T05:59:43;14.80;;;7.93;;
41881;SDS011;27562;47.524;12.404;2024-01-07T06:02:09;15.20;;;7.88;;
41881;SDS011;27562;47.524;12.404;2024-01-07T06:04:37;15.00;;;7.70;;
41881;SDS011;27562;47.524;12.404;2024-01-07T06:07:03;15.75;;;7.88;;
41881;SDS011;27562;47.524;12.404;2024-01-07T06:09:29;13.88;;;6.72;;
41881;SDS011;27562;47.524;12.404;2024-01-07T06:11:55;13.27;;;6.60;;
41881;SDS011;27562;47.524;12.404;2024-01-07T06:14:21;13.35;;;7.05;;
41881;SDS011;27562;47.524;12.404;2024-01-07T06:16:47;13.77;;;7.20;;
41881;SDS011;27562;47.524;12.404;2024-01-07T06:19:13;12.77;;;7.00;;
41881;SDS011;27562;47.524;12.404;2024-01-07T06:21:40;12.85;;;6.85;;
41881;SDS011;27562;47.524;12.404;2024-01-07T06:24:09;14.30;;;7.30;;
41881;SDS011;27562;47.524;12.404;2024-01-07T06:26:35;15.70;;;7.80;;
41881;SDS011;27562;47.524;12.404;2024-01-07T06:29:01;16.67;;;8.20;;
41881;SDS011;27562;47.524;12.404;2024-01-07T06:31:27;18.60;;;8.43;;
41881;SDS011;27562;47.524;12.404;2024-01-07T06:33:52;15.85;;;8.15;;
41881;SDS011;27562;47.524;12.404;2024-01-07T06:36:21;16.33;;;8.40;;
41881;SDS011;27562;47.524;12.404;2024-01-07T06:38:47;16.80;;;8.50;;
41881;SDS011;27562;47.524;12.404;2024-01-07T06:41:13;16.00;;;7.60;;
41881;SDS011;27562;47.524;12.404;2024-01-07T06:43:39;15.95;;;8.40;;
41881;SDS011;27562;47.524;12.404;2024-01-07T06:46:05;14.10;;;8.00;;
41881;SDS011;27562;47.524;12.404;2024-01-07T06:48:31;15.63;;;7.85;;
41881;SDS011;27562;47.524;12.404;2024-01-07T06:50:57;12.32;;;6.63;;
41881;SDS011;27562;47.524;12.404;2024-01-07T06:53:23;14.90;;;7.50;;
41881;SDS011;27562;47.524;12.404;2024-01-07T06:55:49;14.23;;;6.40;;
41881;SDS011;27562;47.524;12.404;2024-01-07T06:58:15;13.55;;;6.18;;
41881;SDS011;27562;47.524;12.404;2024-01-07T07:00:40;11.55;;;5.55;;
41881;SDS011;27562;47.524;12.404;2024-01-07T07:03:06;9.95;;;5.47;;
41881;SDS011;27562;47.524;12.404;2024-01-07T07:05:33;9.88;;;5.53;;
41881;SDS011;27562;47.524;12.404;2024-01-07T07:07:58;11.82;;;6.15;;
41881;SDS011;27562;47.524;12.404;2024-01-07T07:10:24;10.63;;;5.75;;
41881;SDS011;27562;47.524;12.404;2024-01-07T07:12:50;12.63;;;6.28;;
41881;SDS011;27562;47.524;12.404;2024-01-07T07:15:16;16.02;;;6.45;;
41881;SDS011;27562;47.524;12.404;2024-01-07T07:17:42;15.57;;;7.30;;
41881;SDS011;27562;47.524;12.404;2024-01-07T07:20:08;14.40;;;7.82;;
41881;SDS011;27562;47.524;12.404;2024-01-07T07:22:34;16.33;;;8.32;;
41881;SDS011;27562;47.524;12.404;2024-01-07T07:25:00;31.30;;;14.30;;
41881;SDS011;27562;47.524;12.404;2024-01-07T07:27:26;52.95;;;22.52;;
41881;SDS011;27562;47.524;12.404;2024-01-07T07:29:51;62.53;;;26.08;;
41881;SDS011;27562;47.524;12.404;2024-01-07T07:32:17;69.05;;;30.63;;
41881;SDS011;27562;47.524;12.404;2024-01-07T07:34:43;71.70;;;31.63;;
41881;SDS011;27562;47.524;12.404;2024-01-07T07:37:09;67.45;;;29.20;;
41881;SDS011;27562;47.524;12.404;2024-01-07T07:39:35;52.50;;;23.17;;
41881;SDS011;27562;47.524;12.404;2024-01-07T07:42:00;47.45;;;21.73;;
41881;SDS011;27562;47.524;12.404;2024-01-07T07:44:26;40.50;;;19.58;;
41881;SDS011;27562;47.524;12.404;2024-01-07T07:46:52;39.42;;;17.42;;
41881;SDS011;27562;47.524;12.404;2024-01-07T07:49:18;34.05;;;17.38;;
41881;SDS011;27562;47.524;12.404;2024-01-07T07:51:44;30.58;;;14.40;;
41881;SDS011;27562;47.524;12.404;2024-01-07T07:54:09;32.53;;;16.05;;
41881;SDS011;27562;47.524;12.404;2024-01-07T07:56:35;32.00;;;16.05;;
41881;SDS011;27562;47.524;12.404;2024-01-07T07:59:01;36.13;;;18.17;;
41881;SDS011;27562;47.524;12.404;2024-01-07T08:01:28;40.25;;;20.60;;
41881;SDS011;27562;47.524;12.404;2024-01-07T08:03:54;41.17;;;20.45;;
41881;SDS011;27562;47.524;12.404;2024-01-07T08:06:19;37.28;;;18.77;;
41881;SDS011;27562;47.524;12.404;2024-01-07T08:08:45;44.75;;;21.10;;
41881;SDS011;27562;47.524;12.404;2024-01-07T08:11:11;40.65;;;20.88;;
41881;SDS011;27562;47.524;12.404;2024-01-07T08:13:37;33.80;;;17.42;;
41881;SDS011;27562;47.524;12.404;2024-01-07T08:16:03;42.15;;;20.40;;
41881;SDS011;27562;47.524;12.404;2024-01-07T08:18:30;39.47;;;20.05;;
41881;SDS011;27562;47.524;12.404;2024-01-07T08:20:56;31.52;;;17.23;;
41881;SDS011;27562;47.524;12.404;2024-01-07T08:23:23;33.15;;;16.90;;
41881;SDS011;27562;47.524;12.404;2024-01-07T08:25:49;29.42;;;14.70;;
41881;SDS011;27562;47.524;12.404;2024-01-07T08:28:16;26.95;;;13.65;;
41881;SDS011;27562;47.524;12.404;2024-01-07T08:30:42;28.73;;;14.60;;
41881;SDS011;27562;47.524;12.404;2024-01-07T08:33:09;23.85;;;13.43;;
41881;SDS011;27562;47.524;12.404;2024-01-07T08:35:35;24.10;;;12.85;;
41881;SDS011;27562;47.524;12.404;2024-01-07T08:38:00;23.90;;;12.32;;
41881;SDS011;27562;47.524;12.404;2024-01-07T08:40:26;23.35;;;11.80;;
41881;SDS011;27562;47.524;12.404;2024-01-07T08:42:52;22.48;;;11.82;;
41881;SDS011;27562;47.524;12.404;2024-01-07T08:45:18;21.77;;;11.15;;
41881;SDS011;27562;47.524;12.404;2024-01-07T08:47:44;21.30;;;9.85;;
41881;SDS011;27562;47.524;12.404;2024-01-07T08:50:09;21.77;;;11.88;;
41881;SDS011;27562;47.524;12.404;2024-01-07T08:52:35;25.95;;;12.15;;
41881;SDS011;27562;47.524;12.404;2024-01-07T08:55:01;23.92;;;12.05;;
41881;SDS011;27562;47.524;12.404;2024-01-07T08:57:30;22.60;;;12.35;;
41881;SDS011;27562;47.524;12.404;2024-01-07T08:59:56;22.92;;;12.20;;
41881;SDS011;27562;47.524;12.404;2024-01-07T09:02:22;22.73;;;12.07;;
41881;SDS011;27562;47.524;12.404;2024-01-07T09:04:47;15.25;;;9.48;;
41881;SDS011;27562;47.524;12.404;2024-01-07T09:07:13;14.65;;;8.68;;
41881;SDS011;27562;47.524;12.404;2024-01-07T09:09:41;15.48;;;7.80;;
41881;SDS011;27562;47.524;12.404;2024-01-07T09:12:07;15.48;;;7.82;;
41881;SDS011;27562;47.524;12.404;2024-01-07T09:14:33;12.90;;;7.00;;
41881;SDS011;27562;47.524;12.404;2024-01-07T09:16:59;9.30;;;6.20;;
41881;SDS011;27562;47.524;12.404;2024-01-07T09:19:24;9.80;;;5.90;;
41881;SDS011;27562;47.524;12.404;2024-01-07T09:21:50;10.18;;;6.15;;
41881;SDS011;27562;47.524;12.404;2024-01-07T09:24:16;8.30;;;5.22;;
41881;SDS011;27562;47.524;12.404;2024-01-07T09:26:41;8.77;;;5.10;;
41881;SDS011;27562;47.524;12.404;2024-01-07T09:29:07;8.88;;;5.22;;
41881;SDS011;27562;47.524;12.404;2024-01-07T09:31:32;7.93;;;4.65;;
41881;SDS011;27562;47.524;12.404;2024-01-07T09:33:58;7.53;;;4.53;;
41881;SDS011;27562;47.524;12.404;2024-01-07T09:36:24;6.55;;;3.97;;
41881;SDS011;27562;47.524;12.404;2024-01-07T09:38:49;4.80;;;4.07;;
41881;SDS011;27562;47.524;12.404;2024-01-07T09:41:15;6.25;;;4.35;;
41881;SDS011;27562;47.524;12.404;2024-01-07T09:43:41;6.30;;;3.60;;
41881;SDS011;27562;47.524;12.404;2024-01-07T09:46:06;6.00;;;3.67;;
41881;SDS011;27562;47.524;12.404;2024-01-07T09:48:32;6.43;;;3.92;;
41881;SDS011;27562;47.524;12.404;2024-01-07T09:51:00;9.32;;;5.57;;
41881;SDS011;27562;47.524;12.404;2024-01-07T09:53:27;11.63;;;6.25;;
41881;SDS011;27562;47.524;12.404;2024-01-07T09:56:12;9.10;;;5.80;;
41881;SDS011;27562;47.524;12.404;2024-01-07T09:58:50;9.82;;;5.45;;
41881;SDS011;27562;47.524;12.404;2024-01-07T10:01:17;12.27;;;5.78;;
41881;SDS011;27562;47.524;12.404;2024-01-07T10:03:43;12.35;;;7.05;;
41881;SDS011;27562;47.524;12.404;2024-01-07T10:06:10;18.60;;;11.38;;
41881;SDS011;27562;47.524;12.404;2024-01-07T10:08:36;14.93;;;9.20;;
41881;SDS011;27562;47.524;12.404;2024-01-07T10:11:02;13.10;;;7.10;;
41881;SDS011;27562;47.524;12.404;2024-01-07T10:13:29;15.70;;;8.40;;
41881;SDS011;27562;47.524;12.404;2024-01-07T10:15:56;10.82;;;6.32;;
41881;SDS011;27562;47.524;12.404;2024-01-07T10:18:23;10.25;;;5.47;;
41881;SDS011;27562;47.524;12.404;2024-01-07T10:20:50;11.77;;;7.07;;
41881;SDS011;27562;47.524;12.404;2024-01-07T10:23:19;19.52;;;9.05;;
41881;SDS011;27562;47.524;12.404;2024-01-07T10:25:45;7.03;;;4.35;;
41881;SDS011;27562;47.524;12.404;2024-01-07T10:28:10;7.40;;;4.53;;
41881;SDS011;27562;47.524;12.404;2024-01-07T10:30:39;8.93;;;4.78;;
41881;SDS011;27562;47.524;12.404;2024-01-07T10:33:05;6.90;;;4.30;;
41881;SDS011;27562;47.524;12.404;2024-01-07T10:35:34;6.65;;;4.20;;
41881;SDS011;27562;47.524;12.404;2024-01-07T10:38:01;6.47;;;3.85;;
41881;SDS011;27562;47.524;12.404;2024-01-07T10:40:27;7.22;;;4.28;;
41881;SDS011;27562;47.524;12.404;2024-01-07T10:42:55;13.32;;;5.55;;
41881;SDS011;27562;47.524;12.404;2024-01-07T10:45:21;12.15;;;5.55;;
41881;SDS011;27562;47.524;12.404;2024-01-07T10:47:51;11.15;;;6.32;;
41881;SDS011;27562;47.524;12.404;2024-01-07T10:50:21;10.00;;;5.70;;
41881;SDS011;27562;47.524;12.404;2024-01-07T10:52:51;6.60;;;3.42;;
41881;SDS011;27562;47.524;12.404;2024-01-07T10:55:27;6.05;;;3.63;;
41881;SDS011;27562;47.524;12.404;2024-01-07T10:57:58;6.55;;;3.83;;
41881;SDS011;27562;47.524;12.404;2024-01-07T11:00:26;6.45;;;3.28;;
41881;SDS011;27562;47.524;12.404;2024-01-07T11:02:57;5.80;;;3.53;;
41881;SDS011;27562;47.524;12.404;2024-01-07T11:05:50;4.68;;;3.10;;
41881;SDS011;27562;47.524;12.404;2024-01-07T11:11:53;6.53;;;3.00;;
41881;SDS011;27562;47.524;12.404;2024-01-07T11:14:12;8.13;;;3.55;;
41881;SDS011;27562;47.524;12.404;2024-01-07T11:17:08;5.13;;;3.13;;
41881;SDS011;27562;47.524;12.404;2024-01-07T11:19:37;5.78;;;3.28;;
41881;SDS011;27562;47.524;12.404;2024-01-07T11:24:49;7.07;;;4.10;;
41881;SDS011;27562;47.524;12.404;2024-01-07T11:27:16;10.05;;;5.15;;
41881;SDS011;27562;47.524;12.404;2024-01-07T11:29:42;13.38;;;6.43;;
41881;SDS011;27562;47.524;12.404;2024-01-07T11:32:08;5.63;;;3.60;;
41881;SDS011;27562;47.524;12.404;2024-01-07T11:34:38;9.27;;;4.97;;
41881;SDS011;27562;47.524;12.404;2024-01-07T11:37:11;7.53;;;4.30;;
41881;SDS011;27562;47.524;12.404;2024-01-07T11:39:38;6.38;;;4.05;;
41881;SDS011;27562;47.524;12.404;2024-01-07T11:42:07;4.68;;;3.22;;
41881;SDS011;27562;47.524;12.404;2024-01-07T11:44:35;62.53;;;29.00;;
41881;SDS011;27562;47.524;12.404;2024-01-07T11:49:32;24.70;;;12.35;;
41881;SDS011;27562;47.524;12.404;2024-01-07T11:51:58;7.10;;;4.65;;
41881;SDS011;27562;47.524;12.404;2024-01-07T11:54:24;8.57;;;4.32;;
41881;SDS011;27562;47.524;12.404;2024-01-07T11:56:50;5.68;;;3.25;;
41881;SDS011;27562;47.524;12.404;2024-01-07T11:59:16;5.30;;;3.05;;
41881;SDS011;27562;47.524;12.404;2024-01-07T12:01:42;7.43;;;3.10;;
41881;SDS011;27562;47.524;12.404;2024-01-07T12:04:07;11.93;;;5.60;;
41881;SDS011;27562;47.524;12.404;2024-01-07T12:06:34;18.67;;;8.68;;
41881;SDS011;27562;47.524;12.404;2024-01-07T12:09:00;10.25;;;5.38;;
41881;SDS011;27562;47.524;12.404;2024-01-07T12:11:26;9.20;;;4.70;;
41881;SDS011;27562;47.524;12.404;2024-01-07T12:13:52;8.07;;;4.07;;
41881;SDS011;27562;47.524;12.404;2024-01-07T12:16:18;5.88;;;3.58;;
41881;SDS011;27562;47.524;12.404;2024-01-07T12:18:43;6.65;;;3.95;;
41881;SDS011;27562;47.524;12.404;2024-01-07T12:21:09;5.95;;;2.95;;
41881;SDS011;27562;47.524;12.404;2024-01-07T12:23:35;3.78;;;2.38;;
41881;SDS011;27562;47.524;12.404;2024-01-07T12:26:08;3.97;;;2.45;;
41881;SDS011;27562;47.524;12.404;2024-01-07T12:28:36;4.95;;;2.75;;
41881;SDS011;27562;47.524;12.404;2024-01-07T12:31:05;4.63;;;2.40;;
41881;SDS011;27562;47.524;12.404;2024-01-07T12:33:31;4.85;;;2.42;;
41881;SDS011;27562;47.524;12.404;2024-01-07T12:35:58;6.57;;;3.13;;
41881;SDS011;27562;47.524;12.404;2024-01-07T12:38:25;8.80;;;3.88;;
41881;SDS011;27562;47.524;12.404;2024-01-07T12:40:54;6.18;;;3.10;;
41881;SDS011;27562;47.524;12.404;2024-01-07T12:43:20;7.15;;;2.53;;
41881;SDS011;27562;47.524;12.404;2024-01-07T12:45:47;4.55;;;1.73;;
41881;SDS011;27562;47.524;12.404;2024-01-07T12:48:14;3.85;;;1.70;;
41881;SDS011;27562;47.524;12.404;2024-01-07T12:50:39;2.97;;;1.50;;
41881;SDS011;27562;47.524;12.404;2024-01-07T12:53:05;1.95;;;1.23;;
41881;SDS011;27562;47.524;12.404;2024-01-07T12:55:31;3.33;;;1.60;;
41881;SDS011;27562;47.524;12.404;2024-01-07T12:57:57;5.90;;;1.83;;
41881;SDS011;27562;47.524;12.404;2024-01-07T13:00:26;5.55;;;2.40;;
41881;SDS011;27562;47.524;12.404;2024-01-07T13:02:53;4.07;;;1.90;;
41881;SDS011;27562;47.524;12.404;2024-01-07T13:05:20;2.70;;;1.40;;
41881;SDS011;27562;47.524;12.404;2024-01-07T13:07:46;2.97;;;1.30;;
41881;SDS011;27562;47.524;12.404;2024-01-07T13:10:12;2.25;;;1.25;;
41881;SDS011;27562;47.524;12.404;2024-01-07T13:12:38;1.77;;;0.98;;
41881;SDS011;27562;47.524;12.404;2024-01-07T13:15:04;2.47;;;1.40;;
41881;SDS011;27562;47.524;12.404;2024-01-07T13:17:30;1.65;;;0.93;;
41881;SDS011;27562;47.524;12.404;2024-01-07T13:19:57;2.20;;;1.10;;
41881;SDS011;27562;47.524;12.404;2024-01-07T13:22:26;1.60;;;1.00;;
41881;SDS011;27562;47.524;12.404;2024-01-07T13:24:52;0.90;;;0.55;;
41881;SDS011;27562;47.524;12.404;2024-01-07T13:27:19;1.73;;;0.85;;
41881;SDS011;27562;47.524;12.404;2024-01-07T13:29:47;2.33;;;1.27;;
41881;SDS011;27562;47.524;12.404;2024-01-07T13:32:12;3.60;;;1.77;;
41881;SDS011;27562;47.524;12.404;2024-01-07T13:34:44;4.28;;;1.98;;
41881;SDS011;27562;47.524;12.404;2024-01-07T13:37:10;15.43;;;6.63;;
41881;SDS011;27562;47.524;12.404;2024-01-07T13:39:36;4.45;;;1.50;;
41881;SDS011;27562;47.524;12.404;2024-01-07T13:42:03;1.48;;;0.85;;
41881;SDS011;27562;47.524;12.404;2024-01-07T13:44:29;1.10;;;0.60;;
41881;SDS011;27562;47.524;12.404;2024-01-07T13:46:55;2.88;;;1.55;;
41881;SDS011;27562;47.524;12.404;2024-01-07T13:49:21;6.03;;;3.20;;
41881;SDS011;27562;47.524;12.404;2024-01-07T13:51:46;3.60;;;2.05;;
41881;SDS011;27562;47.524;12.404;2024-01-07T13:54:12;4.75;;;2.30;;
41881;SDS011;27562;47.524;12.404;2024-01-07T13:56:40;3.13;;;1.65;;
41881;SDS011;27562;47.524;12.404;2024-01-07T13:59:08;2.22;;;1.40;;
41881;SDS011;27562;47.524;12.404;2024-01-07T14:01:33;1.25;;;0.82;;
41881;SDS011;27562;47.524;12.404;2024-01-07T14:03:59;3.13;;;1.38;;
41881;SDS011;27562;47.524;12.404;2024-01-07T14:06:25;3.30;;;1.60;;
41881;SDS011;27562;47.524;12.404;2024-01-07T14:08:51;4.68;;;1.85;;
41881;SDS011;27562;47.524;12.404;2024-01-07T14:11:20;4.90;;;2.50;;
41881;SDS011;27562;47.524;12.404;2024-01-07T14:13:46;7.82;;;2.55;;
41881;SDS011;27562;47.524;12.404;2024-01-07T14:16:13;4.75;;;2.05;;
41881;SDS011;27562;47.524;12.404;2024-01-07T14:18:39;3.92;;;2.10;;
41881;SDS011;27562;47.524;12.404;2024-01-07T14:21:04;4.82;;;1.98;;
41881;SDS011;27562;47.524;12.404;2024-01-07T14:23:30;2.80;;;1.70;;
41881;SDS011;27562;47.524;12.404;2024-01-07T14:25:57;3.45;;;1.05;;
41881;SDS011;27562;47.524;12.404;2024-01-07T14:28:23;3.10;;;1.00;;